sensor_id;sensor_type;location;lat;lon;timestamp;pressure;altitude;pressure_sealevel;temperature;humidity
35848;BME280;22332;51.954;20.118;2022-09-20T00:03:04;99737.48;;;10.22;86.38
35848;BME280;22332;51.954;20.118;2022-09-20T00:06:11;99742.83;;;10.17;87.01
35848;BME280;22332;51.954;20.118;2022-09-20T00:09:17;99740.64;;;10.09;87.34
35848;BME280;22332;51.954;20.118;2022-09-20T00:12:22;99745.53;;;10.06;87.03
35848;BME280;22332;51.954;20.118;2022-09-20T00:15:28;99748.73;;;10.04;86.82
35848;BME280;22332;51.954;20.118;2022-09-20T00:18:33;99750.09;;;10.00;87.06
35848;BME280;22332;51.954;20.118;2022-09-20T00:21:38;99749.38;;;10.00;86.78
35848;BME280;22332;51.954;20.118;2022-09-20T00:24:45;99749.36;;;10.02;86.87
35848;BME280;22332;51.954;20.118;2022-09-20T00:27:50;99751.36;;;10.03;86.82
35848;BME280;22332;51.954;20.118;2022-09-20T00:30:56;99750.80;;;10.03;86.57
35848;BME280;22332;51.954;20.118;2022-09-20T00:34:01;99753.92;;;10.02;86.77
35848;BME280;22332;51.954;20.118;2022-09-20T00:37:24;99755.21;;;10.00;86.95
35848;BME280;22332;51.954;20.118;2022-09-20T00:40:30;99755.19;;;10.00;87.01
35848;BME280;22332;51.954;20.118;2022-09-20T00:43:40;99759.98;;;10.00;86.72
35848;BME280;22332;51.954;20.118;2022-09-20T00:46:46;99760.15;;;10.02;86.78
35848;BME280;22332;51.954;20.118;2022-09-20T00:49:54;99761.19;;;10.04;86.78
35848;BME280;22332;51.954;20.118;2022-09-20T00:53:05;99760.61;;;10.00;86.42
35848;BME280;22332;51.954;20.118;2022-09-20T00:56:14;99757.16;;;9.94;86.90
35848;BME280;22332;51.954;20.118;2022-09-20T00:59:23;99759.92;;;9.91;86.78
35848;BME280;22332;51.954;20.118;2022-09-20T01:02:30;99760.10;;;9.89;87.13
35848;BME280;22332;51.954;20.118;2022-09-20T01:05:37;99756.74;;;9.89;87.10
35848;BME280;22332;51.954;20.118;2022-09-20T01:08:46;99755.31;;;9.89;87.11
35848;BME280;22332;51.954;20.118;2022-09-20T01:11:54;99754.29;;;9.84;86.63
35848;BME280;22332;51.954;20.118;2022-09-20T01:15:03;99756.34;;;9.82;86.78
35848;BME280;22332;51.954;20.118;2022-09-20T01:18:09;99755.05;;;9.81;86.81
35848;BME280;22332;51.954;20.118;2022-09-20T01:21:16;99759.15;;;9.81;86.87
35848;BME280;22332;51.954;20.118;2022-09-20T01:24:27;99759.12;;;9.81;86.58
35848;BME280;22332;51.954;20.118;2022-09-20T01:27:45;99761.70;;;9.79;86.78
35848;BME280;22332;51.954;20.118;2022-09-20T01:30:56;99765.13;;;9.72;86.63
35848;BME280;22332;51.954;20.118;2022-09-20T01:34:10;99766.60;;;9.66;86.81
35848;BME280;22332;51.954;20.118;2022-09-20T01:37:21;99770.40;;;9.65;86.67
35848;BME280;22332;51.954;20.118;2022-09-20T01:40:35;99771.30;;;9.62;86.91
35848;BME280;22332;51.954;20.118;2022-09-20T01:43:50;99771.23;;;9.61;86.80
35848;BME280;22332;51.954;20.118;2022-09-20T01:46:55;99770.26;;;9.58;86.85
35848;BME280;22332;51.954;20.118;2022-09-20T01:50:11;99771.51;;;9.56;86.62
35848;BME280;22332;51.954;20.118;2022-09-20T01:53:41;99769.55;;;9.51;86.74
35848;BME280;22332;51.954;20.118;2022-09-20T01:57:11;99772.13;;;9.47;86.87
35848;BME280;22332;51.954;20.118;2022-09-20T02:00:26;99770.62;;;9.44;86.56
35848;BME280;22332;51.954;20.118;2022-09-20T02:07:39;99764.23;;;9.48;86.77
35848;BME280;22332;51.954;20.118;2022-09-20T02:11:09;99769.28;;;9.49;86.79
35848;BME280;22332;51.954;20.118;2022-09-20T02:14:31;99769.74;;;9.49;86.80
35848;BME280;22332;51.954;20.118;2022-09-20T02:17:40;99767.78;;;9.49;87.20
35848;BME280;22332;51.954;20.118;2022-09-20T02:20:54;99780.16;;;9.50;86.98
35848;BME280;22332;51.954;20.118;2022-09-20T02:24:05;99781.15;;;9.49;86.92
35848;BME280;22332;51.954;20.118;2022-09-20T02:27:24;99781.67;;;9.51;86.88
35848;BME280;22332;51.954;20.118;2022-09-20T02:30:40;99781.65;;;9.53;86.67
35848;BME280;22332;51.954;20.118;2022-09-20T02:34:05;99784.50;;;9.51;86.60
35848;BME280;22332;51.954;20.118;2022-09-20T02:37:32;99785.63;;;9.45;86.62
35848;BME280;22332;51.954;20.118;2022-09-20T02:41:05;99786.11;;;9.35;86.86
35848;BME280;22332;51.954;20.118;2022-09-20T02:44:27;99785.91;;;9.26;87.12
35848;BME280;22332;51.954;20.118;2022-09-20T02:47:37;99793.84;;;9.23;87.22
35848;BME280;22332;51.954;20.118;2022-09-20T02:50:48;99802.58;;;9.16;87.55
35848;BME280;22332;51.954;20.118;2022-09-20T02:54:05;99802.73;;;9.13;87.59
35848;BME280;22332;51.954;20.118;2022-09-20T02:57:20;99806.75;;;9.10;87.90
35848;BME280;22332;51.954;20.118;2022-09-20T03:00:33;99803.27;;;9.02;87.59
35848;BME280;22332;51.954;20.118;2022-09-20T03:03:49;99801.80;;;9.02;87.47
35848;BME280;22332;51.954;20.118;2022-09-20T03:07:02;99801.33;;;9.04;87.64
35848;BME280;22332;51.954;20.118;2022-09-20T03:10:17;99801.94;;;9.07;87.59
35848;BME280;22332;51.954;20.118;2022-09-20T03:13:35;99801.93;;;9.09;87.58
35848;BME280;22332;51.954;20.118;2022-09-20T03:16:56;99802.90;;;9.08;87.56
35848;BME280;22332;51.954;20.118;2022-09-20T03:20:10;99803.12;;;9.00;87.90
35848;BME280;22332;51.954;20.118;2022-09-20T03:23:34;99805.59;;;8.93;88.10
35848;BME280;22332;51.954;20.118;2022-09-20T03:26:51;99806.42;;;8.88;88.07
35848;BME280;22332;51.954;20.118;2022-09-20T03:30:19;99806.13;;;8.90;88.39
35848;BME280;22332;51.954;20.118;2022-09-20T03:33:36;99804.06;;;8.93;88.44
35848;BME280;22332;51.954;20.118;2022-09-20T03:36:56;99806.65;;;8.97;88.61
35848;BME280;22332;51.954;20.118;2022-09-20T03:40:31;99807.81;;;8.97;88.68
35848;BME280;22332;51.954;20.118;2022-09-20T03:43:58;99813.24;;;9.02;89.96
35848;BME280;22332;51.954;20.118;2022-09-20T03:47:18;99812.83;;;9.02;89.31
35848;BME280;22332;51.954;20.118;2022-09-20T03:50:42;99816.32;;;9.08;89.20
35848;BME280;22332;51.954;20.118;2022-09-20T03:54:17;99819.73;;;9.10;89.43
35848;BME280;22332;51.954;20.118;2022-09-20T03:57:39;99818.21;;;9.00;90.03
35848;BME280;22332;51.954;20.118;2022-09-20T04:01:00;99820.20;;;8.98;89.14
35848;BME280;22332;51.954;20.118;2022-09-20T04:04:16;99818.63;;;9.01;89.09
35848;BME280;22332;51.954;20.118;2022-09-20T04:07:34;99822.45;;;9.04;89.28
35848;BME280;22332;51.954;20.118;2022-09-20T04:10:56;99826.08;;;8.97;89.09
35848;BME280;22332;51.954;20.118;2022-09-20T04:14:11;99828.61;;;8.93;89.17
35848;BME280;22332;51.954;20.118;2022-09-20T04:17:29;99828.92;;;8.90;88.95
35848;BME280;22332;51.954;20.118;2022-09-20T04:20:39;99830.43;;;8.93;89.14
35848;BME280;22332;51.954;20.118;2022-09-20T04:23:53;99828.97;;;8.92;89.10
35848;BME280;22332;51.954;20.118;2022-09-20T04:27:04;99830.13;;;8.96;88.91
35848;BME280;22332;51.954;20.118;2022-09-20T04:30:18;99826.70;;;9.00;88.82
35848;BME280;22332;51.954;20.118;2022-09-20T04:33:27;99831.92;;;9.03;88.74
35848;BME280;22332;51.954;20.118;2022-09-20T04:36:56;99835.53;;;9.08;88.86
35848;BME280;22332;51.954;20.118;2022-09-20T04:40:41;99842.73;;;9.12;88.70
35848;BME280;22332;51.954;20.118;2022-09-20T04:44:09;99848.85;;;9.15;88.81
35848;BME280;22332;51.954;20.118;2022-09-20T04:48:01;99850.16;;;9.16;88.68
35848;BME280;22332;51.954;20.118;2022-09-20T04:58:39;99855.65;;;9.25;88.75
35848;BME280;22332;51.954;20.118;2022-09-20T05:02:13;99861.15;;;9.30;88.70
35848;BME280;22332;51.954;20.118;2022-09-20T05:05:54;99867.80;;;9.38;88.66
35848;BME280;22332;51.954;20.118;2022-09-20T05:09:31;99877.20;;;9.49;88.70
35848;BME280;22332;51.954;20.118;2022-09-20T05:13:00;99881.19;;;9.57;88.57
35848;BME280;22332;51.954;20.118;2022-09-20T05:16:19;99887.31;;;9.63;88.43
35848;BME280;22332;51.954;20.118;2022-09-20T05:19:31;99888.42;;;9.62;88.67
35848;BME280;22332;51.954;20.118;2022-09-20T05:23:06;99900.14;;;9.68;88.81
35848;BME280;22332;51.954;20.118;2022-09-20T05:26:16;99902.27;;;9.70;88.70
35848;BME280;22332;51.954;20.118;2022-09-20T05:29:27;99903.06;;;9.76;88.57
35848;BME280;22332;51.954;20.118;2022-09-20T05:32:36;99905.63;;;9.86;88.65
35848;BME280;22332;51.954;20.118;2022-09-20T05:35:47;99915.72;;;9.93;88.41
35848;BME280;22332;51.954;20.118;2022-09-20T05:38:57;99919.30;;;9.91;88.54
35848;BME280;22332;51.954;20.118;2022-09-20T05:42:13;99919.85;;;9.82;88.71
35848;BME280;22332;51.954;20.118;2022-09-20T05:45:31;99923.61;;;9.80;88.82
35848;BME280;22332;51.954;20.118;2022-09-20T05:48:54;99924.61;;;9.77;88.90
35848;BME280;22332;51.954;20.118;2022-09-20T05:52:08;99929.11;;;9.78;88.96
35848;BME280;22332;51.954;20.118;2022-09-20T05:55:40;99929.45;;;9.86;89.05
35848;BME280;22332;51.954;20.118;2022-09-20T05:59:04;99927.40;;;9.90;88.92
35848;BME280;22332;51.954;20.118;2022-09-20T06:02:26;99927.30;;;9.94;88.86
35848;BME280;22332;51.954;20.118;2022-09-20T06:05:45;99926.68;;;10.04;89.02
35848;BME280;22332;51.954;20.118;2022-09-20T06:09:04;99928.32;;;10.20;88.78
35848;BME280;22332;51.954;20.118;2022-09-20T06:12:34;99935.42;;;10.26;88.54
35848;BME280;22332;51.954;20.118;2022-09-20T06:15:47;99940.52;;;10.27;88.45
35848;BME280;22332;51.954;20.118;2022-09-20T06:18:59;99942.14;;;10.30;88.84
35848;BME280;22332;51.954;20.118;2022-09-20T06:22:15;99946.49;;;10.45;88.66
35848;BME280;22332;51.954;20.118;2022-09-20T06:25:20;99944.35;;;10.50;88.13
35848;BME280;22332;51.954;20.118;2022-09-20T06:28:31;99948.42;;;10.52;88.07
35848;BME280;22332;51.954;20.118;2022-09-20T06:31:38;99949.32;;;10.48;88.13
35848;BME280;22332;51.954;20.118;2022-09-20T06:34:43;99948.52;;;10.56;88.13
35848;BME280;22332;51.954;20.118;2022-09-20T06:37:56;99943.37;;;10.54;87.95
35848;BME280;22332;51.954;20.118;2022-09-20T06:41:22;99944.98;;;10.49;87.85
35848;BME280;22332;51.954;20.118;2022-09-20T06:44:33;99940.53;;;10.54;87.87
35848;BME280;22332;51.954;20.118;2022-09-20T06:47:44;99942.64;;;10.63;87.93
35848;BME280;22332;51.954;20.118;2022-09-20T06:50:49;99942.61;;;10.64;87.70
35848;BME280;22332;51.954;20.118;2022-09-20T06:53:56;99941.34;;;10.63;87.49
35848;BME280;22332;51.954;20.118;2022-09-20T06:57:03;99940.70;;;10.71;88.01
35848;BME280;22332;51.954;20.118;2022-09-20T07:00:13;99943.36;;;10.80;87.86
35848;BME280;22332;51.954;20.118;2022-09-20T07:03:19;99945.79;;;10.86;87.17
35848;BME280;22332;51.954;20.118;2022-09-20T07:06:25;99947.33;;;10.88;87.55
35848;BME280;22332;51.954;20.118;2022-09-20T07:09:32;99952.16;;;10.96;87.54
35848;BME280;22332;51.954;20.118;2022-09-20T07:12:37;99955.17;;;11.06;87.62
35848;BME280;22332;51.954;20.118;2022-09-20T07:15:43;99957.06;;;11.20;87.86
35848;BME280;22332;51.954;20.118;2022-09-20T07:18:49;99965.55;;;11.39;87.38
35848;BME280;22332;51.954;20.118;2022-09-20T07:21:55;99964.64;;;11.44;86.66
35848;BME280;22332;51.954;20.118;2022-09-20T07:25:00;99973.95;;;11.47;86.87
35848;BME280;22332;51.954;20.118;2022-09-20T07:28:06;99980.04;;;11.44;86.34
35848;BME280;22332;51.954;20.118;2022-09-20T07:31:12;99983.38;;;11.42;86.32
35848;BME280;22332;51.954;20.118;2022-09-20T07:34:17;99991.45;;;11.45;86.26
35848;BME280;22332;51.954;20.118;2022-09-20T07:37:23;99989.69;;;11.43;85.94
35848;BME280;22332;51.954;20.118;2022-09-20T07:40:29;99994.34;;;11.50;86.39
35848;BME280;22332;51.954;20.118;2022-09-20T07:43:35;99994.79;;;11.58;86.14
35848;BME280;22332;51.954;20.118;2022-09-20T07:46:40;99996.59;;;11.63;85.87
35848;BME280;22332;51.954;20.118;2022-09-20T07:49:46;99999.17;;;11.71;85.88
35848;BME280;22332;51.954;20.118;2022-09-20T07:52:51;99996.84;;;11.92;86.14
35848;BME280;22332;51.954;20.118;2022-09-20T07:56:04;99991.61;;;12.21;85.64
35848;BME280;22332;51.954;20.118;2022-09-20T07:59:10;99987.08;;;12.36;85.14
35848;BME280;22332;51.954;20.118;2022-09-20T08:02:17;99991.81;;;12.58;84.61
35848;BME280;22332;51.954;20.118;2022-09-20T08:05:22;99998.83;;;12.47;82.83
35848;BME280;22332;51.954;20.118;2022-09-20T08:08:29;99998.61;;;12.43;84.98
35848;BME280;22332;51.954;20.118;2022-09-20T08:11:36;100004.42;;;12.59;85.26
35848;BME280;22332;51.954;20.118;2022-09-20T08:14:42;100002.65;;;12.75;84.93
35848;BME280;22332;51.954;20.118;2022-09-20T08:17:48;100006.48;;;12.81;83.15
35848;BME280;22332;51.954;20.118;2022-09-20T08:20:53;100017.50;;;12.52;82.21
35848;BME280;22332;51.954;20.118;2022-09-20T08:24:00;100018.98;;;12.28;82.62
35848;BME280;22332;51.954;20.118;2022-09-20T08:27:07;100023.80;;;12.16;82.57
35848;BME280;22332;51.954;20.118;2022-09-20T08:30:12;100025.59;;;12.05;83.21
35848;BME280;22332;51.954;20.118;2022-09-20T08:33:18;100031.13;;;11.90;83.21
35848;BME280;22332;51.954;20.118;2022-09-20T08:36:24;100027.85;;;11.89;84.26
35848;BME280;22332;51.954;20.118;2022-09-20T08:39:30;100030.31;;;12.04;84.28
35848;BME280;22332;51.954;20.118;2022-09-20T08:42:36;100022.63;;;12.26;84.33
35848;BME280;22332;51.954;20.118;2022-09-20T08:45:42;100024.34;;;12.57;84.38
35848;BME280;22332;51.954;20.118;2022-09-20T08:48:48;100023.96;;;12.86;83.55
35848;BME280;22332;51.954;20.118;2022-09-20T08:51:56;100027.27;;;13.02;83.28
35848;BME280;22332;51.954;20.118;2022-09-20T08:55:02;100033.34;;;13.01;82.03
35848;BME280;22332;51.954;20.118;2022-09-20T08:58:10;100033.92;;;12.89;82.33
35848;BME280;22332;51.954;20.118;2022-09-20T09:01:19;100047.48;;;12.80;81.05
35848;BME280;22332;51.954;20.118;2022-09-20T09:04:33;100046.84;;;12.68;81.98
35848;BME280;22332;51.954;20.118;2022-09-20T09:07:39;100052.16;;;12.71;81.62
35848;BME280;22332;51.954;20.118;2022-09-20T09:10:45;100051.55;;;12.75;82.61
35848;BME280;22332;51.954;20.118;2022-09-20T09:13:59;100052.30;;;12.91;82.16
35848;BME280;22332;51.954;20.118;2022-09-20T09:17:08;100045.53;;;12.97;81.85
35848;BME280;22332;51.954;20.118;2022-09-20T09:20:18;100043.20;;;13.05;81.72
35848;BME280;22332;51.954;20.118;2022-09-20T09:23:26;100047.38;;;13.19;81.17
35848;BME280;22332;51.954;20.118;2022-09-20T09:26:38;100049.17;;;13.33;81.54
35848;BME280;22332;51.954;20.118;2022-09-20T09:29:51;100045.45;;;13.47;80.80
35848;BME280;22332;51.954;20.118;2022-09-20T09:33:23;100046.42;;;13.50;80.53
35848;BME280;22332;51.954;20.118;2022-09-20T09:36:29;100048.52;;;13.56;80.62
35848;BME280;22332;51.954;20.118;2022-09-20T09:39:36;100048.33;;;13.66;80.91
35848;BME280;22332;51.954;20.118;2022-09-20T09:42:51;100053.91;;;13.66;78.28
35848;BME280;22332;51.954;20.118;2022-09-20T09:46:16;100047.84;;;13.52;78.61
35848;BME280;22332;51.954;20.118;2022-09-20T09:49:25;100043.65;;;13.41;79.07
35848;BME280;22332;51.954;20.118;2022-09-20T09:52:32;100044.25;;;13.46;79.77
35848;BME280;22332;51.954;20.118;2022-09-20T09:56:08;100043.60;;;13.58;80.34
35848;BME280;22332;51.954;20.118;2022-09-20T09:59:40;100044.48;;;13.84;80.55
35848;BME280;22332;51.954;20.118;2022-09-20T10:06:28;100050.48;;;14.25;77.74
35848;BME280;22332;51.954;20.118;2022-09-20T10:09:52;100047.34;;;14.37;79.46
35848;BME280;22332;51.954;20.118;2022-09-20T10:13:08;100045.79;;;14.46;78.20
35848;BME280;22332;51.954;20.118;2022-09-20T10:16:27;100048.78;;;14.51;77.01
35848;BME280;22332;51.954;20.118;2022-09-20T10:23:22;100051.60;;;14.48;76.57
35848;BME280;22332;51.954;20.118;2022-09-20T10:26:52;100057.98;;;14.26;76.92
35848;BME280;22332;51.954;20.118;2022-09-20T10:30:11;100056.09;;;14.09;76.22
35848;BME280;22332;51.954;20.118;2022-09-20T10:33:22;100056.17;;;14.07;77.69
35848;BME280;22332;51.954;20.118;2022-09-20T10:36:36;100061.02;;;14.17;76.13
35848;BME280;22332;51.954;20.118;2022-09-20T10:39:51;100060.07;;;14.15;76.86
35848;BME280;22332;51.954;20.118;2022-09-20T10:43:05;100068.48;;;14.24;75.71
35848;BME280;22332;51.954;20.118;2022-09-20T10:46:28;100068.05;;;14.24;76.61
35848;BME280;22332;51.954;20.118;2022-09-20T10:49:42;100073.71;;;14.34;75.26
35848;BME280;22332;51.954;20.118;2022-09-20T10:52:59;100075.48;;;14.31;75.15
35848;BME280;22332;51.954;20.118;2022-09-20T10:56:18;100073.42;;;14.21;74.22
35848;BME280;22332;51.954;20.118;2022-09-20T10:59:40;100066.39;;;14.31;75.27
35848;BME280;22332;51.954;20.118;2022-09-20T11:03:02;100071.69;;;14.57;75.81
35848;BME280;22332;51.954;20.118;2022-09-20T11:06:16;100073.73;;;14.76;73.43
35848;BME280;22332;51.954;20.118;2022-09-20T11:09:28;100076.88;;;14.69;74.14
35848;BME280;22332;51.954;20.118;2022-09-20T11:12:37;100068.61;;;14.80;74.95
35848;BME280;22332;51.954;20.118;2022-09-20T11:15:48;100077.25;;;14.90;74.44
35848;BME280;22332;51.954;20.118;2022-09-20T11:18:59;100072.83;;;14.81;72.75
35848;BME280;22332;51.954;20.118;2022-09-20T11:22:09;100075.67;;;14.69;73.10
35848;BME280;22332;51.954;20.118;2022-09-20T11:25:19;100072.80;;;14.62;74.68
35848;BME280;22332;51.954;20.118;2022-09-20T11:28:29;100077.30;;;14.64;73.66
35848;BME280;22332;51.954;20.118;2022-09-20T11:31:40;100079.44;;;14.63;73.16
35848;BME280;22332;51.954;20.118;2022-09-20T11:34:52;100082.07;;;14.56;73.02
35848;BME280;22332;51.954;20.118;2022-09-20T11:38:07;100083.39;;;14.58;73.26
35848;BME280;22332;51.954;20.118;2022-09-20T11:41:17;100078.92;;;14.70;74.42
35848;BME280;22332;51.954;20.118;2022-09-20T11:44:25;100076.54;;;14.71;73.48
35848;BME280;22332;51.954;20.118;2022-09-20T11:47:34;100080.27;;;14.72;73.42
35848;BME280;22332;51.954;20.118;2022-09-20T11:54:49;100075.04;;;15.08;72.12
35848;BME280;22332;51.954;20.118;2022-09-20T11:58:05;100074.19;;;15.08;71.36
35848;BME280;22332;51.954;20.118;2022-09-20T12:01:14;100075.88;;;14.95;69.99
35848;BME280;22332;51.954;20.118;2022-09-20T12:04:23;100074.59;;;14.79;70.56
35848;BME280;22332;51.954;20.118;2022-09-20T12:07:32;100076.64;;;14.80;71.24
35848;BME280;22332;51.954;20.118;2022-09-20T12:10:40;100081.63;;;14.86;70.99
35848;BME280;22332;51.954;20.118;2022-09-20T12:13:54;100075.90;;;14.94;71.79
35848;BME280;22332;51.954;20.118;2022-09-20T12:17:02;100076.50;;;15.01;70.43
35848;BME280;22332;51.954;20.118;2022-09-20T12:24:22;100073.98;;;15.18;70.44
35848;BME280;22332;51.954;20.118;2022-09-20T12:27:56;100065.19;;;15.21;69.76
35848;BME280;22332;51.954;20.118;2022-09-20T12:31:46;100060.64;;;15.29;70.43
35848;BME280;22332;51.954;20.118;2022-09-20T12:34:51;100069.94;;;15.15;69.91
35848;BME280;22332;51.954;20.118;2022-09-20T12:37:56;100067.61;;;14.84;70.78
35848;BME280;22332;51.954;20.118;2022-09-20T12:41:20;100070.00;;;14.63;72.40
35848;BME280;22332;51.954;20.118;2022-09-20T12:44:30;100069.48;;;14.48;72.62
35848;BME280;22332;51.954;20.118;2022-09-20T12:47:37;100067.33;;;14.32;72.47
35848;BME280;22332;51.954;20.118;2022-09-20T12:50:42;100066.55;;;14.13;72.86
35848;BME280;22332;51.954;20.118;2022-09-20T12:54:21;100058.58;;;14.04;73.25
35848;BME280;22332;51.954;20.118;2022-09-20T12:57:30;100059.27;;;13.94;73.61
35848;BME280;22332;51.954;20.118;2022-09-20T13:00:40;100057.63;;;13.81;73.95
35848;BME280;22332;51.954;20.118;2022-09-20T13:03:49;100052.82;;;13.86;74.40
35848;BME280;22332;51.954;20.118;2022-09-20T13:10:51;100052.15;;;14.15;74.04
35848;BME280;22332;51.954;20.118;2022-09-20T13:14:05;100052.56;;;14.25;73.87
35848;BME280;22332;51.954;20.118;2022-09-20T13:17:21;100053.05;;;14.38;74.02
35848;BME280;22332;51.954;20.118;2022-09-20T13:20:30;100049.05;;;14.48;73.67
35848;BME280;22332;51.954;20.118;2022-09-20T13:23:47;100051.48;;;14.62;73.65
35848;BME280;22332;51.954;20.118;2022-09-20T13:27:00;100055.12;;;14.82;73.39
35848;BME280;22332;51.954;20.118;2022-09-20T13:30:16;100051.48;;;15.08;72.86
35848;BME280;22332;51.954;20.118;2022-09-20T13:33:23;100053.47;;;15.31;71.84
35848;BME280;22332;51.954;20.118;2022-09-20T13:36:30;100054.88;;;15.54;71.45
35848;BME280;22332;51.954;20.118;2022-09-20T13:39:36;100056.66;;;15.54;68.65
35848;BME280;22332;51.954;20.118;2022-09-20T13:42:42;100058.63;;;15.41;68.17
35848;BME280;22332;51.954;20.118;2022-09-20T13:45:51;100057.60;;;15.35;69.78
35848;BME280;22332;51.954;20.118;2022-09-20T13:49:13;100058.02;;;15.42;70.36
35848;BME280;22332;51.954;20.118;2022-09-20T13:52:26;100057.92;;;15.51;68.46
35848;BME280;22332;51.954;20.118;2022-09-20T13:55:33;100051.70;;;15.47;68.66
35848;BME280;22332;51.954;20.118;2022-09-20T13:58:39;100053.70;;;15.43;69.93
35848;BME280;22332;51.954;20.118;2022-09-20T14:01:49;100056.84;;;15.44;67.41
35848;BME280;22332;51.954;20.118;2022-09-20T14:04:58;100061.17;;;15.32;65.96
35848;BME280;22332;51.954;20.118;2022-09-20T14:08:04;100059.85;;;15.24;67.78
35848;BME280;22332;51.954;20.118;2022-09-20T14:11:14;100064.28;;;15.16;68.12
35848;BME280;22332;51.954;20.118;2022-09-20T14:14:20;100063.66;;;14.99;68.37
35848;BME280;22332;51.954;20.118;2022-09-20T14:17:30;100062.52;;;14.87;69.34
35848;BME280;22332;51.954;20.118;2022-09-20T14:20:36;100062.73;;;14.86;69.55
35848;BME280;22332;51.954;20.118;2022-09-20T14:23:52;100061.60;;;14.87;69.60
35848;BME280;22332;51.954;20.118;2022-09-20T14:27:04;100060.30;;;14.91;69.04
35848;BME280;22332;51.954;20.118;2022-09-20T14:30:31;100057.02;;;15.00;69.53
35848;BME280;22332;51.954;20.118;2022-09-20T14:33:43;100058.81;;;15.05;68.81
35848;BME280;22332;51.954;20.118;2022-09-20T14:36:58;100057.08;;;14.99;68.78
35848;BME280;22332;51.954;20.118;2022-09-20T14:40:19;100053.71;;;15.01;69.14
35848;BME280;22332;51.954;20.118;2022-09-20T14:43:29;100052.69;;;15.04;68.35
35848;BME280;22332;51.954;20.118;2022-09-20T14:46:37;100045.34;;;15.15;69.58
35848;BME280;22332;51.954;20.118;2022-09-20T14:49:43;100049.60;;;15.26;68.52
35848;BME280;22332;51.954;20.118;2022-09-20T14:53:00;100056.59;;;15.29;68.41
35848;BME280;22332;51.954;20.118;2022-09-20T14:56:11;100056.06;;;15.30;68.59
35848;BME280;22332;51.954;20.118;2022-09-20T14:59:26;100060.73;;;15.26;67.77
35848;BME280;22332;51.954;20.118;2022-09-20T15:02:35;100068.56;;;15.18;67.61
35848;BME280;22332;51.954;20.118;2022-09-20T15:05:43;100073.70;;;15.15;65.59
35848;BME280;22332;51.954;20.118;2022-09-20T15:08:52;100076.45;;;15.13;65.85
35848;BME280;22332;51.954;20.118;2022-09-20T15:12:03;100081.67;;;15.14;65.82
35848;BME280;22332;51.954;20.118;2022-09-20T15:15:12;100087.73;;;15.19;65.41
35848;BME280;22332;51.954;20.118;2022-09-20T15:18:21;100095.38;;;15.10;64.20
35848;BME280;22332;51.954;20.118;2022-09-20T15:21:28;100096.00;;;14.95;64.56
35848;BME280;22332;51.954;20.118;2022-09-20T15:24:33;100100.47;;;14.80;62.52
35848;BME280;22332;51.954;20.118;2022-09-20T15:27:39;100104.12;;;14.64;63.81
35848;BME280;22332;51.954;20.118;2022-09-20T15:30:49;100107.61;;;14.51;64.31
35848;BME280;22332;51.954;20.118;2022-09-20T15:33:54;100107.65;;;14.44;64.69
35848;BME280;22332;51.954;20.118;2022-09-20T15:37:00;100109.29;;;14.37;65.12
35848;BME280;22332;51.954;20.118;2022-09-20T15:40:06;100117.52;;;14.34;64.79
35848;BME280;22332;51.954;20.118;2022-09-20T15:43:14;100122.45;;;14.30;65.37
35848;BME280;22332;51.954;20.118;2022-09-20T15:46:21;100125.52;;;14.29;65.73
35848;BME280;22332;51.954;20.118;2022-09-20T15:49:27;100133.09;;;14.22;65.54
35848;BME280;22332;51.954;20.118;2022-09-20T15:52:35;100133.61;;;14.11;65.82
35848;BME280;22332;51.954;20.118;2022-09-20T15:55:43;100138.89;;;14.04;65.56
35848;BME280;22332;51.954;20.118;2022-09-20T15:58:50;100143.23;;;13.85;65.78
35848;BME280;22332;51.954;20.118;2022-09-20T16:02:02;100143.46;;;13.71;66.41
35848;BME280;22332;51.954;20.118;2022-09-20T16:05:08;100143.15;;;13.59;66.50
35848;BME280;22332;51.954;20.118;2022-09-20T16:08:15;100142.98;;;13.45;66.81
35848;BME280;22332;51.954;20.118;2022-09-20T16:11:21;100144.52;;;13.38;67.03
35848;BME280;22332;51.954;20.118;2022-09-20T16:14:27;100145.92;;;13.27;67.19
35848;BME280;22332;51.954;20.118;2022-09-20T16:17:33;100143.86;;;13.20;67.47
35848;BME280;22332;51.954;20.118;2022-09-20T16:21:06;100149.86;;;13.16;67.58
35848;BME280;22332;51.954;20.118;2022-09-20T16:24:12;100151.67;;;13.15;67.59
35848;BME280;22332;51.954;20.118;2022-09-20T16:27:17;100149.30;;;13.14;67.66
35848;BME280;22332;51.954;20.118;2022-09-20T16:30:23;100147.28;;;13.10;67.67
35848;BME280;22332;51.954;20.118;2022-09-20T16:33:29;100145.48;;;12.96;67.82
35848;BME280;22332;51.954;20.118;2022-09-20T16:36:36;100145.55;;;12.82;67.98
35848;BME280;22332;51.954;20.118;2022-09-20T16:39:41;100147.94;;;12.70;68.18
35848;BME280;22332;51.954;20.118;2022-09-20T16:42:47;100150.60;;;12.59;68.45
35848;BME280;22332;51.954;20.118;2022-09-20T16:45:59;100149.29;;;12.50;68.65
35848;BME280;22332;51.954;20.118;2022-09-20T16:49:07;100149.54;;;12.41;68.71
35848;BME280;22332;51.954;20.118;2022-09-20T16:52:14;100150.70;;;12.30;68.76
35848;BME280;22332;51.954;20.118;2022-09-20T16:55:19;100154.45;;;12.20;68.91
35848;BME280;22332;51.954;20.118;2022-09-20T16:58:29;100161.59;;;12.10;69.49
35848;BME280;22332;51.954;20.118;2022-09-20T17:01:37;100167.77;;;12.03;69.38
35848;BME280;22332;51.954;20.118;2022-09-20T17:04:43;100169.68;;;12.02;69.63
35848;BME280;22332;51.954;20.118;2022-09-20T17:07:48;100175.79;;;12.05;69.94
35848;BME280;22332;51.954;20.118;2022-09-20T17:10:59;100174.86;;;12.08;69.85
35848;BME280;22332;51.954;20.118;2022-09-20T17:14:05;100175.09;;;12.07;69.89
35848;BME280;22332;51.954;20.118;2022-09-20T17:17:10;100180.16;;;12.04;70.22